createdAt,value
2023-03-04T00:01:51.487Z,93.50
2023-03-04T00:04:44.677Z,93.42
2023-03-04T00:07:28.167Z,93.42
2023-03-04T00:10:21.004Z,93.54
2023-03-04T00:13:07.152Z,93.57
2023-03-04T00:15:59.855Z,93.66
2023-03-04T00:18:36.869Z,93.58
2023-03-04T00:21:23.702Z,93.37
2023-03-04T00:24:03.602Z,93.29
2023-03-04T00:26:38.837Z,93.48
2023-03-04T00:29:31.247Z,93.51
2023-03-04T00:32:23.681Z,93.63
2023-03-04T00:35:02.414Z,93.61
2023-03-04T00:37:53.472Z,93.69
2023-03-04T00:40:45.982Z,93.83
2023-03-04T00:43:37.369Z,93.67
2023-03-04T00:46:23.910Z,93.61
2023-03-04T00:49:14.747Z,93.64
2023-03-04T00:51:49.488Z,93.81
2023-03-04T00:54:41.935Z,93.98
2023-03-04T00:57:18.889Z,94.02
2023-03-04T01:00:14.352Z,93.97
2023-03-04T01:03:06.765Z,93.90
2023-03-04T01:05:48.072Z,93.88
2023-03-04T01:08:40.804Z,93.71
2023-03-04T01:11:26.109Z,93.55
2023-03-04T01:14:16.848Z,93.42
2023-03-04T01:17:09.241Z,93.31
2023-03-04T01:19:57.520Z,93.37
2023-03-04T01:22:40.679Z,93.58
2023-03-04T01:25:26.212Z,93.56
2023-03-04T01:28:16.993Z,93.39
2023-03-04T01:30:53.431Z,93.36
2023-03-04T01:33:45.624Z,93.17
2023-03-04T01:36:38.226Z,93.17
2023-03-04T01:39:29.073Z,93.00
2023-03-04T01:42:18.880Z,93.07
2023-03-04T01:45:05.231Z,92.96
2023-03-04T01:47:57.726Z,93.05
2023-03-04T01:50:50.018Z,93.02
2023-03-04T01:53:27.808Z,92.95
2023-03-04T01:56:24.017Z,92.84
2023-03-04T01:59:16.005Z,92.90
2023-03-04T02:02:07.262Z,92.69
2023-03-04T02:04:59.791Z,92.66
2023-03-04T02:07:45.393Z,92.58
2023-03-04T02:10:30.735Z,92.59
2023-03-04T02:13:23.035Z,92.61
2023-03-04T02:16:15.436Z,92.68
2023-03-04T02:19:08.692Z,92.60
2023-03-04T02:21:51.023Z,92.46
2023-03-04T02:24:44.793Z,92.46
2023-03-04T02:27:31.251Z,92.36
2023-03-04T02:30:23.728Z,92.22
2023-03-04T02:33:20.214Z,92.20
2023-03-04T02:35:57.382Z,92.39
2023-03-04T02:38:48.216Z,92.09
2023-03-04T02:54:20.757Z,90.12
2023-03-04T02:57:08.824Z,90.23
2023-03-04T03:00:01.140Z,90.37
2023-03-04T03:02:53.634Z,90.41
2023-03-04T03:05:44.405Z,90.89
2023-03-04T03:08:28.281Z,90.80
2023-03-04T03:11:19.316Z,90.69
2023-03-04T03:13:54.098Z,90.30
2023-03-04T03:16:39.072Z,90.41
2023-03-04T03:19:25.207Z,90.70
2023-03-04T03:22:10.742Z,90.84
2023-03-04T03:24:55.030Z,91.01
2023-03-04T03:27:47.653Z,90.86
2023-03-04T03:30:28.082Z,90.71
2023-03-04T03:33:13.046Z,90.60
2023-03-04T03:35:53.024Z,90.67
2023-03-04T03:38:45.610Z,90.58
2023-03-04T03:41:27.018Z,90.37
2023-03-04T03:44:04.428Z,90.37
2023-03-04T03:46:45.059Z,90.34
2023-03-04T03:49:21.773Z,90.47
2023-03-04T03:51:56.969Z,90.48
2023-03-04T03:54:40.408Z,90.46
2023-03-04T03:57:17.023Z,90.51
2023-03-04T04:00:00.450Z,90.57
2023-03-04T04:02:41.268Z,90.68
2023-03-04T04:05:24.766Z,90.62
2023-03-04T04:07:59.951Z,90.48
2023-03-04T04:10:32.112Z,90.32
2023-03-04T04:13:18.255Z,89.94
2023-03-04T04:16:10.713Z,89.80
2023-03-04T04:18:51.990Z,89.58
2023-03-04T04:21:37.641Z,89.47
2023-03-04T04:24:30.142Z,89.34
2023-03-04T04:27:13.542Z,89.29
2023-03-04T04:29:58.769Z,89.33
2023-03-04T04:32:34.089Z,89.28
2023-03-04T04:35:26.708Z,89.25
2023-03-04T04:38:19.247Z,89.27
2023-03-04T04:40:57.595Z,89.12
2023-03-04T04:43:49.938Z,89.20
2023-03-04T04:46:43.020Z,89.18
2023-03-04T04:49:35.552Z,89.01
2023-03-04T04:52:20.043Z,88.93
2023-03-04T04:55:06.579Z,88.84
2023-03-04T04:57:59.008Z,88.68
2023-03-04T05:00:51.799Z,88.82
2023-03-04T05:03:39.944Z,88.70
2023-03-04T05:06:23.629Z,88.77
2023-03-04T05:09:16.401Z,88.67
2023-03-04T05:12:08.881Z,88.53
2023-03-04T05:14:44.432Z,88.57
2023-03-04T05:17:19.368Z,88.45
2023-03-04T05:19:57.058Z,88.40
2023-03-04T05:22:39.713Z,88.25
2023-03-04T05:25:20.480Z,87.98
2023-03-04T05:28:12.511Z,87.89
2023-03-04T05:30:47.956Z,87.96
2023-03-04T05:33:29.421Z,87.74
2023-03-04T05:36:05.872Z,87.68
2023-03-04T05:38:56.779Z,87.84
2023-03-04T05:41:43.644Z,87.69
2023-03-04T05:44:23.311Z,87.58
2023-03-04T05:47:14.155Z,87.28
2023-03-04T05:50:05.204Z,87.01
2023-03-04T05:52:40.640Z,86.73
2023-03-04T05:55:30.547Z,86.72
2023-03-04T05:58:16.425Z,86.71
2023-03-04T06:01:04.532Z,86.60
2023-03-04T06:03:48.652Z,86.50
2023-03-04T06:06:30.938Z,86.40
2023-03-04T06:09:03.264Z,86.33
2023-03-04T06:11:48.416Z,86.16
2023-03-04T06:14:31.835Z,86.14
2023-03-04T06:17:18.457Z,86.00
2023-03-04T06:19:53.397Z,86.00
2023-03-04T06:22:30.791Z,85.77
2023-03-04T06:25:14.155Z,85.76
2023-03-04T06:27:57.138Z,85.76
2023-03-04T06:30:32.118Z,85.72
2023-03-04T06:33:15.752Z,85.35
2023-03-04T06:36:09.224Z,84.98
2023-03-04T06:38:46.332Z,84.92
2023-03-04T06:41:38.914Z,85.11
2023-03-04T06:44:22.404Z,84.97
2023-03-04T06:47:13.704Z,84.95
2023-03-04T06:49:51.376Z,84.64
2023-03-04T06:52:37.738Z,84.56
2023-03-04T06:55:14.126Z,84.44
2023-03-04T06:58:06.848Z,84.38
2023-03-04T07:00:42.494Z,84.43
2023-03-04T07:03:34.726Z,84.30
2023-03-04T07:06:28.670Z,84.25
2023-03-04T07:09:14.079Z,84.29
2023-03-04T07:12:05.566Z,83.97
2023-03-04T07:14:49.080Z,83.83
2023-03-04T07:17:42.110Z,83.72
2023-03-04T07:20:33.497Z,83.50
2023-03-04T07:23:26.450Z,83.52
2023-03-04T07:26:09.165Z,83.03
2023-03-04T07:29:03.193Z,82.93
2023-03-04T07:31:50.997Z,82.71
2023-03-04T07:34:44.795Z,82.75
2023-03-04T07:37:30.405Z,82.49
2023-03-04T07:40:24.113Z,82.23
2023-03-04T07:43:16.459Z,82.38
2023-03-04T07:45:51.493Z,82.23
2023-03-04T07:48:32.831Z,82.33
2023-03-04T07:51:15.942Z,82.38
2023-03-04T07:53:57.953Z,82.11
2023-03-04T07:56:50.501Z,82.18
2023-03-04T07:59:43.100Z,82.17
2023-03-04T08:02:28.530Z,82.07
2023-03-04T08:05:21.525Z,81.73
2023-03-04T08:08:16.380Z,81.71
2023-03-04T08:11:09.316Z,81.86
2023-03-04T08:13:54.709Z,81.79
2023-03-04T08:16:32.164Z,81.86
2023-03-04T08:19:27.181Z,81.57
2023-03-04T08:22:20.149Z,81.71
2023-03-04T08:25:13.503Z,81.74
2023-03-04T08:28:06.064Z,81.71
2023-03-04T08:30:57.498Z,81.46
2023-03-04T08:33:42.367Z,81.44
2023-03-04T08:36:35.633Z,81.44
2023-03-04T08:39:18.432Z,81.43
2023-03-04T08:42:10.827Z,81.43
2023-03-04T08:45:02.086Z,81.38
2023-03-04T08:47:55.006Z,81.52
2023-03-04T08:50:38.762Z,81.12
2023-03-04T08:53:24.123Z,81.17
2023-03-04T08:56:25.387Z,81.34
2023-03-04T08:59:18.059Z,81.36
2023-03-04T09:02:09.055Z,81.26
2023-03-04T09:05:01.978Z,81.52
2023-03-04T09:07:55.357Z,81.70
2023-03-04T09:10:48.376Z,81.71
2023-03-04T09:13:41.057Z,81.71
2023-03-04T09:16:34.013Z,81.68
2023-03-04T09:19:27.991Z,81.73
2023-03-04T09:22:13.754Z,81.66
2023-03-04T09:24:57.128Z,81.57
2023-03-04T09:27:47.890Z,81.41
2023-03-04T09:30:40.490Z,81.55
2023-03-04T09:33:31.323Z,81.47
2023-03-04T09:36:07.029Z,81.43
2023-03-04T09:38:39.781Z,81.25
2023-03-04T09:41:34.253Z,81.28
2023-03-04T09:44:27.060Z,81.37
2023-03-04T09:47:21.082Z,81.24
2023-03-04T09:50:09.673Z,81.09
2023-03-04T09:53:07.829Z,81.11
2023-03-04T09:56:02.391Z,81.40
2023-03-04T09:59:03.541Z,81.56
2023-03-04T10:01:57.993Z,81.62
2023-03-04T10:04:48.824Z,81.55
2023-03-04T10:07:34.812Z,81.35
2023-03-04T10:10:32.695Z,81.16
2023-03-04T10:13:33.164Z,80.87
2023-03-04T10:16:16.062Z,80.64
2023-03-04T10:19:34.441Z,80.16
2023-03-04T10:22:33.157Z,79.98
2023-03-04T10:25:24.541Z,79.83
2023-03-04T10:28:17.826Z,79.86
2023-03-04T10:31:03.987Z,79.61
2023-03-04T10:33:54.885Z,79.29
2023-03-04T10:37:00.257Z,79.57
2023-03-04T10:39:45.813Z,79.25
2023-03-04T10:42:40.488Z,78.98
2023-03-04T10:45:36.740Z,78.84
2023-03-04T10:48:24.482Z,78.81
2023-03-04T10:51:22.359Z,78.81
2023-03-04T10:54:11.080Z,78.70
2023-03-04T10:56:59.637Z,78.49
2023-03-04T10:59:51.671Z,78.30
2023-03-04T11:02:36.494Z,78.26
2023-03-04T11:05:23.038Z,78.04
2023-03-04T11:08:22.975Z,77.55
2023-03-04T11:11:38.861Z,78.23
2023-03-04T11:14:36.316Z,77.74
2023-03-04T11:17:30.133Z,77.58
2023-03-04T11:20:18.022Z,77.15
2023-03-04T11:23:17.587Z,77.32
2023-03-04T11:25:58.853Z,77.26
2023-03-04T11:28:50.904Z,76.98
2023-03-04T11:31:41.612Z,77.16
2023-03-04T11:34:39.677Z,77.37
2023-03-04T11:37:24.331Z,77.48
2023-03-04T11:40:25.509Z,77.17
2023-03-04T11:43:13.416Z,76.47
2023-03-04T11:46:20.571Z,76.13
2023-03-04T11:49:02.118Z,76.19
2023-03-04T11:51:50.941Z,76.22
2023-03-04T11:54:37.196Z,76.19
2023-03-04T11:57:39.868Z,75.76
2023-03-04T12:00:41.148Z,75.48
2023-03-04T12:03:39.824Z,75.52
2023-03-04T12:06:41.956Z,75.90
2023-03-04T12:09:41.125Z,76.31
2023-03-04T12:12:35.363Z,76.72
2023-03-04T12:15:20.420Z,77.11
2023-03-04T12:18:19.543Z,77.08
2023-03-04T12:21:16.027Z,77.06
2023-03-04T12:24:11.833Z,77.29
2023-03-04T12:27:08.892Z,77.25
2023-03-04T12:30:06.512Z,76.99
2023-03-04T12:33:06.344Z,77.32
2023-03-04T12:35:47.941Z,77.12
2023-03-04T12:38:50.075Z,77.15
2023-03-04T12:41:35.601Z,77.39
2023-03-04T12:44:20.253Z,77.25
2023-03-04T12:47:28.840Z,76.92
2023-03-04T12:50:32.326Z,76.59
2023-03-04T12:53:18.645Z,76.94
2023-03-04T12:55:58.436Z,77.00
2023-03-04T12:58:43.126Z,77.07
2023-03-04T13:01:38.070Z,76.78
2023-03-04T13:04:29.825Z,76.58
2023-03-04T13:07:30.743Z,76.85
2023-03-04T13:10:12.964Z,76.58
2023-03-04T13:13:05.814Z,76.74
2023-03-04T13:16:07.182Z,76.88
2023-03-04T13:18:49.561Z,76.67
2023-03-04T13:21:54.598Z,76.99
2023-03-04T13:24:52.225Z,77.29
2023-03-04T13:28:04.454Z,77.70
2023-03-04T13:31:15.347Z,77.90
2023-03-04T13:34:05.130Z,78.11
2023-03-04T13:36:59.546Z,78.44
2023-03-04T13:39:44.493Z,78.50
2023-03-04T13:42:45.092Z,78.47
2023-03-04T13:45:39.186Z,78.55
2023-03-04T13:48:37.434Z,78.22
2023-03-04T13:51:29.667Z,77.90
2023-03-04T13:54:16.914Z,77.78
2023-03-04T13:57:21.756Z,77.86
2023-03-04T14:00:08.475Z,77.51
2023-03-04T14:03:15.660Z,77.47
2023-03-04T14:06:19.838Z,77.17
2023-03-04T14:09:13.763Z,76.98
2023-03-04T14:12:15.523Z,77.03
2023-03-04T14:15:22.204Z,76.77
2023-03-04T14:18:15.270Z,76.79
2023-03-04T14:21:09.104Z,76.49
2023-03-04T14:24:08.207Z,76.34
2023-03-04T14:27:14.102Z,76.16
2023-03-04T14:30:10.546Z,76.37
2023-03-04T14:33:04.011Z,76.44
2023-03-04T14:35:47.473Z,76.10
2023-03-04T14:38:42.801Z,76.40
2023-03-04T14:45:01.695Z,76.27
2023-03-04T14:47:40.832Z,76.31
2023-03-04T14:50:23.765Z,76.32
2023-03-04T14:53:17.737Z,76.25
2023-03-04T14:56:04.625Z,76.23
2023-03-04T14:58:40.751Z,76.15
2023-03-04T15:01:24.594Z,76.29
2023-03-04T15:04:02.108Z,76.25
2023-03-04T15:06:39.464Z,76.37
2023-03-04T15:09:23.368Z,76.37
2023-03-04T15:12:06.219Z,76.34
2023-03-04T15:14:50.216Z,76.38
2023-03-04T15:17:37.836Z,76.58
2023-03-04T15:20:28.725Z,76.68
2023-03-04T15:23:14.717Z,76.80
2023-03-04T15:26:10.985Z,76.90
2023-03-04T15:28:53.262Z,76.86
2023-03-04T15:31:34.216Z,76.91
2023-03-04T15:34:26.560Z,76.67
2023-03-04T15:37:02.897Z,76.83
2023-03-04T15:39:38.154Z,76.81
2023-03-04T15:42:29.255Z,76.75
2023-03-04T15:45:04.348Z,76.77
2023-03-04T15:47:39.028Z,76.80
2023-03-04T15:50:14.654Z,76.96
2023-03-04T15:52:51.290Z,77.13
2023-03-04T15:55:32.134Z,77.18
2023-03-04T15:58:12.511Z,77.03
2023-03-04T16:00:47.206Z,77.13
2023-03-04T16:03:30.610Z,77.24
2023-03-04T16:06:14.266Z,77.06
2023-03-04T16:08:51.118Z,76.89
2023-03-04T16:11:42.236Z,76.83
2023-03-04T16:14:25.500Z,77.09
2023-03-04T16:16:57.877Z,77.32
2023-03-04T16:19:32.536Z,77.38
2023-03-04T16:22:07.724Z,77.56
2023-03-04T16:24:40.229Z,77.78
2023-03-04T16:27:18.478Z,78.03
2023-03-04T16:30:01.722Z,78.08
2023-03-04T16:32:36.342Z,78.11
2023-03-04T16:35:17.693Z,78.19
2023-03-04T16:37:53.808Z,78.48
2023-03-04T16:40:28.989Z,78.80
2023-03-04T16:43:13.905Z,79.46
2023-03-04T16:45:50.929Z,79.94
2023-03-04T16:48:21.472Z,80.06
2023-03-04T16:50:57.306Z,80.22
2023-03-04T16:53:37.099Z,80.44
2023-03-04T16:56:14.919Z,80.51
2023-03-04T16:59:06.149Z,80.71
2023-03-04T17:01:43.623Z,80.80
2023-03-04T17:04:19.094Z,80.81
2023-03-04T17:06:54.516Z,80.93
2023-03-04T17:09:39.026Z,80.92
2023-03-04T17:12:13.614Z,80.99
2023-03-04T17:18:17.983Z,81.11
2023-03-04T17:20:56.100Z,81.15
2023-03-04T17:23:36.487Z,81.18
2023-03-04T17:26:21.086Z,81.23
2023-03-04T17:28:57.575Z,81.07
2023-03-04T17:31:40.959Z,81.30
2023-03-04T17:34:19.018Z,81.30
2023-03-04T17:36:58.046Z,81.42
2023-03-04T17:39:36.005Z,81.58
2023-03-04T17:42:21.768Z,81.80
2023-03-04T17:44:57.183Z,82.08
2023-03-04T17:47:43.983Z,82.17
2023-03-04T17:50:36.639Z,82.45
2023-03-04T17:53:26.209Z,82.57
2023-03-04T17:56:02.831Z,82.78
2023-03-04T17:58:40.725Z,83.03
2023-03-04T18:01:54.199Z,83.16
2023-03-04T18:04:47.338Z,83.31
2023-03-04T18:07:40.146Z,83.30
2023-03-04T18:10:14.122Z,83.37
2023-03-04T18:15:20.538Z,83.23
2023-03-04T18:18:13.124Z,83.11
2023-03-04T18:21:00.294Z,83.04
2023-03-04T18:23:45.309Z,83.13
2023-03-04T18:26:34.472Z,83.08
2023-03-04T18:29:24.474Z,83.14
2023-03-04T18:32:24.312Z,83.12
2023-03-04T18:35:26.796Z,83.28
2023-03-04T18:38:40.595Z,83.53
2023-03-04T18:41:37.696Z,83.99
2023-03-04T18:44:44.369Z,83.83
2023-03-04T18:47:30.901Z,83.25
2023-03-04T18:50:19.131Z,84.29
2023-03-04T18:53:21.525Z,85.11
2023-03-04T18:56:22.207Z,85.31
2023-03-04T18:59:37.584Z,85.76
2023-03-04T19:02:33.182Z,86.27
2023-03-04T19:05:36.785Z,86.56
2023-03-04T19:08:27.538Z,87.70
2023-03-04T19:11:20.252Z,89.01
2023-03-04T19:14:11.853Z,89.79
2023-03-04T19:16:54.734Z,90.24
2023-03-04T19:19:51.103Z,90.68
2023-03-04T19:22:42.292Z,90.88
2023-03-04T19:25:45.729Z,91.08
2023-03-04T19:28:26.747Z,91.22
2023-03-04T19:31:17.587Z,91.21
2023-03-04T19:34:10.455Z,91.42
2023-03-04T19:36:52.984Z,91.43
2023-03-04T19:39:46.229Z,91.52
2023-03-04T19:42:21.422Z,91.35
2023-03-04T19:45:19.825Z,91.51
2023-03-04T19:48:12.698Z,91.33
2023-03-04T19:51:14.439Z,91.32
2023-03-04T19:54:07.163Z,91.11
2023-03-04T19:57:00.829Z,91.09
2023-03-04T19:59:37.825Z,91.07
2023-03-04T20:02:28.247Z,91.02
2023-03-04T20:05:23.447Z,90.83
2023-03-04T20:08:11.228Z,90.68
2023-03-04T20:11:09.439Z,90.63
2023-03-04T20:13:42.759Z,90.31
2023-03-04T20:16:37.078Z,90.29
2023-03-04T20:19:12.524Z,90.17
2023-03-04T20:21:53.984Z,90.03
2023-03-04T20:24:40.206Z,89.97
2023-03-04T20:27:32.839Z,89.98
2023-03-04T20:30:25.510Z,90.02
2023-03-04T20:33:17.771Z,90.06
2023-03-04T20:36:10.565Z,90.06
2023-03-04T20:39:02.118Z,90.10
2023-03-04T20:41:48.181Z,90.14
2023-03-04T20:44:33.057Z,90.15
2023-03-04T20:47:25.457Z,88.94
2023-03-04T20:50:08.541Z,87.81
2023-03-04T20:53:00.910Z,88.36
2023-03-04T20:55:53.225Z,88.22
2023-03-04T20:58:38.882Z,88.17
2023-03-04T21:01:24.617Z,88.34
2023-03-04T21:04:16.246Z,88.61
2023-03-04T21:07:03.566Z,88.64
2023-03-04T21:09:55.937Z,88.77
2023-03-04T21:12:42.281Z,88.88
2023-03-04T21:15:34.573Z,88.73
2023-03-04T21:18:29.671Z,88.68
2023-03-04T21:21:24.715Z,88.94
2023-03-04T21:24:19.117Z,88.73
2023-03-04T21:27:13.054Z,88.72
2023-03-04T21:30:04.303Z,88.45
2023-03-04T21:32:56.912Z,88.13
2023-03-04T21:35:48.728Z,88.17
2023-03-04T21:38:41.569Z,88.10
2023-03-04T21:41:34.237Z,88.24
2023-03-04T21:44:28.469Z,88.03
2023-03-04T21:47:26.022Z,88.34
2023-03-04T21:50:17.097Z,88.33
2023-03-04T21:52:59.331Z,88.21
2023-03-04T21:55:53.305Z,88.30
2023-03-04T21:58:46.213Z,88.41
2023-03-04T22:01:38.597Z,88.61
2023-03-04T22:04:31.055Z,88.67
2023-03-04T22:07:21.841Z,88.70
2023-03-04T22:10:07.358Z,88.90
2023-03-04T22:13:00.436Z,88.88
2023-03-04T22:15:51.123Z,88.89
2023-03-04T22:18:43.505Z,88.91
2023-03-04T22:21:34.531Z,88.77
2023-03-04T22:24:27.679Z,88.87
2023-03-04T22:27:21.034Z,88.64
2023-03-04T22:30:17.301Z,88.60
2023-03-04T22:33:09.585Z,88.62
2023-03-04T22:36:02.116Z,88.74
2023-03-04T22:38:54.566Z,88.50
2023-03-04T22:41:47.032Z,88.40
2023-03-04T22:44:37.909Z,88.12
2023-03-04T22:47:29.128Z,88.17
2023-03-04T22:50:22.797Z,87.86
2023-03-04T22:53:15.294Z,87.84
2023-03-04T22:56:08.423Z,87.80
2023-03-04T22:59:00.963Z,87.83
2023-03-04T23:01:46.873Z,87.84
2023-03-04T23:04:40.177Z,87.97
2023-03-04T23:07:33.548Z,87.72
2023-03-04T23:10:27.746Z,87.46
2023-03-04T23:13:20.080Z,87.42
2023-03-04T23:16:14.312Z,87.38
2023-03-04T23:19:07.443Z,87.56
2023-03-04T23:21:59.681Z,87.46
2023-03-04T23:24:52.053Z,87.41
2023-03-04T23:27:37.873Z,87.41
2023-03-04T23:30:30.320Z,87.24
2023-03-04T23:33:21.421Z,87.30
2023-03-04T23:36:03.663Z,87.15
2023-03-04T23:38:56.276Z,87.27
2023-03-04T23:41:42.914Z,87.34
2023-03-04T23:44:26.480Z,87.16
2023-03-04T23:47:18.632Z,86.77
2023-03-04T23:50:03.970Z,86.49
2023-03-04T23:52:54.792Z,86.39
2023-03-04T23:55:47.112Z,86.28
2023-03-04T23:58:30.339Z,86.15
